Time;durP1;ratioP1;P1;durP2;ratioP2;P2;SDS_P1;SDS_P2;PMS_P1;PMS_P2;Temp;Humidity;BMP_temperature;BMP_pressure;BME280_temperature;BME280_humidity;BME280_pressure;Samples;Min_cycle;Max_cycle;Signal;HPM_P1;HPM_P2
2021/06/05 00:05:05;;;;;;;11.70;5.93;;;22.30;65.40;;;;;;20981386;28;20024;-21
2021/06/05 00:15:16;;;;;;;15.45;6.28;;;22.20;65.70;;;;;;20980686;28;20528;-21
2021/06/05 00:25:17;;;;;;;9.77;6.88;;;22.20;66.20;;;;;;20969535;28;20063;-21
2021/06/05 00:35:18;;;;;;;11.48;6.15;;;22.20;65.80;;;;;;20986320;28;20485;-21
2021/06/05 00:45:20;;;;;;;13.53;8.23;;;22.20;65.80;;;;;;20962564;28;20489;-21
2021/06/05 00:55:25;;;;;;;13.50;6.32;;;22.20;66.60;;;;;;20981662;28;20458;-21
2021/06/05 01:05:26;;;;;;;11.57;7.65;;;22.20;66.30;;;;;;20961124;28;20067;-21
2021/06/05 01:15:40;;;;;;;12.70;7.72;;;22.20;66.10;;;;;;20943046;28;20044;-20
2021/06/05 01:26:05;;;;;;;8.18;7.05;;;22.20;66.20;;;;;;20956212;28;20032;-21
2021/06/05 01:36:08;;;;;;;8.63;6.38;;;22.20;66.10;;;;;;20930029;28;20523;-21
2021/06/05 01:46:09;;;;;;;10.35;6.30;;;22.20;66.20;;;;;;20942752;28;20024;-21
2021/06/05 01:56:16;;;;;;;11.95;6.70;;;22.20;66.20;;;;;;20950432;28;20036;-20
2021/06/05 02:06:19;;;;;;;11.68;7.63;;;22.10;66.10;;;;;;20949747;28;20035;-20
2021/06/05 02:16:29;;;;;;;11.48;7.25;;;22.10;66.00;;;;;;20951500;28;20086;-20
2021/06/05 02:26:33;;;;;;;11.95;7.97;;;22.10;66.00;;;;;;20937186;28;20039;-20
2021/06/05 02:36:38;;;;;;;9.30;7.65;;;22.10;65.80;;;;;;20943144;28;20028;-20
2021/06/05 02:46:40;;;;;;;8.65;7.85;;;22.10;66.00;;;;;;20938986;28;20112;-20
2021/06/05 02:56:40;;;;;;;8.57;7.82;;;22.20;65.90;;;;;;20942090;28;20028;-20
2021/06/05 03:06:41;;;;;;;9.75;7.80;;;22.10;66.10;;;;;;20936426;28;20033;-20
2021/06/05 03:16:42;;;;;;;9.38;7.82;;;22.10;66.00;;;;;;20973002;28;20047;-20
2021/06/05 03:26:42;;;;;;;10.38;8.95;;;22.20;65.90;;;;;;21002090;28;20059;-20
2021/06/05 03:36:43;;;;;;;9.25;7.72;;;22.10;65.90;;;;;;20997528;28;20032;-20
2021/06/05 03:46:44;;;;;;;10.48;7.75;;;22.10;65.80;;;;;;21012214;28;20047;-21
2021/06/05 03:56:44;;;;;;;8.30;7.53;;;22.10;66.00;;;;;;21014838;28;20025;-20
2021/06/05 04:06:45;;;;;;;8.20;7.50;;;22.10;66.20;;;;;;20970832;28;20021;-21
2021/06/05 04:16:45;;;;;;;9.45;7.93;;;22.10;66.10;;;;;;20970069;28;20074;-20
2021/06/05 04:26:46;;;;;;;8.77;7.97;;;22.10;66.40;;;;;;20998090;28;20028;-20
2021/06/05 04:36:52;;;;;;;7.63;6.90;;;22.10;65.90;;;;;;21007896;28;20165;-19
2021/06/05 04:46:53;;;;;;;8.88;7.53;;;22.10;66.50;;;;;;20998352;28;20115;-19
2021/06/05 04:56:53;;;;;;;12.40;7.00;;;22.10;66.10;;;;;;20997975;28;20059;-20
2021/06/05 05:06:54;;;;;;;7.60;6.88;;;22.10;66.00;;;;;;20996057;28;20470;-20
2021/06/05 05:16:54;;;;;;;7.78;6.88;;;22.00;66.30;;;;;;21061064;22;20051;-20
2021/06/05 05:26:55;;;;;;;9.32;6.68;;;22.10;66.30;;;;;;20945739;28;20398;-20
2021/06/05 05:36:56;;;;;;;6.53;5.93;;;22.10;66.20;;;;;;20914325;28;20385;-18
2021/06/05 05:46:56;;;;;;;9.35;6.60;;;22.10;66.10;;;;;;20926847;28;20244;-19
2021/06/05 05:56:57;;;;;;;7.35;6.60;;;22.00;66.40;;;;;;20919560;28;20048;-20
2021/06/05 06:06:57;;;;;;;8.83;7.30;;;22.10;66.20;;;;;;20902347;28;20060;-20
2021/06/05 06:16:58;;;;;;;7.95;7.07;;;22.10;66.40;;;;;;20904586;28;20467;-19
2021/06/05 06:26:59;;;;;;;9.27;7.38;;;22.10;66.50;;;;;;20907581;28;20108;-19
2021/06/05 06:37:03;;;;;;;8.88;8.05;;;22.10;66.50;;;;;;20908403;28;20049;-19
2021/06/05 06:47:06;;;;;;;10.48;8.07;;;22.10;67.00;;;;;;20908406;28;20021;-21
2021/06/05 06:57:07;;;;;;;19.23;9.48;;;22.10;67.00;;;;;;20909284;28;20108;-20
2021/06/05 07:07:08;;;;;;;9.88;8.90;;;22.10;66.90;;;;;;20911759;28;20372;-21
2021/06/05 07:17:09;;;;;;;13.55;8.55;;;22.10;67.40;;;;;;20909260;28;20033;-20
2021/06/05 07:27:09;;;;;;;16.05;8.00;;;22.10;67.20;;;;;;20849287;28;20061;-20
2021/06/05 07:37:11;;;;;;;18.25;8.10;;;22.10;66.80;;;;;;20906006;28;20507;-20
2021/06/05 07:47:11;;;;;;;16.83;9.85;;;22.10;66.70;;;;;;20888908;28;20025;-19
2021/06/05 07:57:12;;;;;;;31.95;12.88;;;22.10;67.60;;;;;;20900248;28;20081;-20
2021/06/05 08:07:13;;;;;;;28.75;13.75;;;22.20;68.10;;;;;;20911633;28;20060;-20
2021/06/05 08:17:14;;;;;;;15.23;12.52;;;22.20;68.20;;;;;;20905707;28;20099;-20
2021/06/05 08:27:15;;;;;;;18.37;11.30;;;22.20;68.10;;;;;;20914111;28;20029;-20
2021/06/05 08:37:15;;;;;;;21.05;12.60;;;22.20;68.40;;;;;;20904251;28;20467;-20
2021/06/05 08:47:42;;;;;;;16.15;11.95;;;22.20;68.40;;;;;;20907136;28;20025;-19
2021/06/05 08:57:49;;;;;;;28.80;13.30;;;22.20;69.30;;;;;;20923939;28;20056;-20
2021/06/05 09:07:50;;;;;;;19.57;12.17;;;22.40;69.00;;;;;;20915712;28;20122;-23
2021/06/05 09:17:55;;;;;;;14.70;13.13;;;22.40;69.00;;;;;;20918849;28;20041;-20
2021/06/05 09:28:18;;;;;;;15.60;14.02;;;22.40;69.80;;;;;;20917915;28;20033;-19
2021/06/05 09:38:33;;;;;;;24.30;16.15;;;22.50;70.00;;;;;;20910027;28;20028;-20
2021/06/05 09:48:38;;;;;;;34.88;19.15;;;22.60;69.80;;;;;;20912252;28;20060;-20
2021/06/05 09:58:43;;;;;;;30.27;20.98;;;22.60;69.70;;;;;;20911075;28;20029;-20
2021/06/05 10:08:44;;;;;;;26.48;23.95;;;22.60;69.90;;;;;;20912150;28;20064;-22
2021/06/05 10:19:08;;;;;;;27.52;25.02;;;22.70;69.80;;;;;;20906973;28;20392;-20
2021/06/05 10:29:42;;;;;;;31.13;28.25;;;22.70;70.00;;;;;;20898151;28;20048;-20
2021/06/05 10:39:45;;;;;;;30.05;26.85;;;22.70;69.80;;;;;;20907349;28;20025;-20
2021/06/05 10:50:05;;;;;;;30.45;27.42;;;22.70;70.50;;;;;;20903075;28;20548;-20
2021/06/05 11:00:21;;;;;;;31.00;28.30;;;22.70;70.70;;;;;;20922448;28;20024;-20
2021/06/05 11:10:49;;;;;;;32.00;29.25;;;22.60;70.90;;;;;;20923790;28;20028;-19
2021/06/05 11:20:50;;;;;;;30.53;27.30;;;22.50;72.20;;;;;;20918785;22;20041;-19
2021/06/05 11:30:51;;;;;;;29.40;26.67;;;22.50;72.40;;;;;;20901620;28;20025;-20
2021/06/05 11:41:08;;;;;;;27.38;24.67;;;22.40;72.40;;;;;;20895833;28;20074;-19
2021/06/05 11:51:19;;;;;;;23.83;21.63;;;22.40;72.20;;;;;;20884090;28;20090;-21
2021/06/05 12:01:22;;;;;;;58.20;24.77;;;22.40;71.60;;;;;;20891879;28;20032;-22
2021/06/05 12:11:32;;;;;;;42.40;23.70;;;22.40;71.90;;;;;;20892873;28;20546;-22
2021/06/05 12:21:36;;;;;;;33.10;23.77;;;22.40;73.90;;;;;;20893154;28;20444;-22
2021/06/05 12:31:42;;;;;;;31.38;22.98;;;22.40;73.80;;;;;;20892075;28;20036;-22
2021/06/05 12:41:46;;;;;;;40.95;24.92;;;22.50;74.40;;;;;;20897256;28;20029;-20
2021/06/05 12:51:59;;;;;;;34.55;22.23;;;22.40;75.10;;;;;;20901790;28;20025;-21
2021/06/05 13:02:36;;;;;;;47.97;24.75;;;22.50;74.80;;;;;;20903791;28;20582;-21
2021/06/05 13:12:46;;;;;;;60.65;26.25;;;22.50;76.40;;;;;;20910266;28;20044;-21
2021/06/05 13:22:47;;;;;;;53.55;28.00;;;22.50;75.70;;;;;;20897754;28;20055;-21
2021/06/05 13:32:54;;;;;;;51.78;27.33;;;22.60;76.30;;;;;;20870024;28;20021;-21
2021/06/05 13:42:55;;;;;;;53.67;27.27;;;22.60;77.80;;;;;;20893294;28;20033;-21
2021/06/05 13:53:29;;;;;;;75.20;28.55;;;22.70;76.60;;;;;;20899912;28;20037;-21
2021/06/05 14:03:30;;;;;;;86.25;24.13;;;22.80;77.00;;;;;;20568668;28;20035;-21
2021/06/05 14:13:31;;;;;;;86.53;22.77;;;23.00;76.00;;;;;;20568442;28;20082;-22
2021/06/05 14:23:32;;;;;;;56.42;21.73;;;23.10;75.30;;;;;;20562814;28;20066;-21
2021/06/05 14:33:33;;;;;;;66.55;21.48;;;23.20;74.80;;;;;;20681942;28;20119;-21
2021/06/05 14:43:41;;;;;;;66.65;19.83;;;23.20;74.70;;;;;;20897187;28;20064;-21
2021/06/05 14:53:43;;;;;;;50.00;18.38;;;23.20;74.40;;;;;;20907443;28;20090;-20
2021/06/05 15:03:43;;;;;;;39.95;19.55;;;23.30;74.00;;;;;;20917113;28;20056;-21
2021/06/05 15:13:44;;;;;;;43.55;17.70;;;23.30;74.50;;;;;;20915402;28;20026;-21
2021/06/05 15:23:45;;;;;;;15.35;10.90;;;23.30;73.70;;;;;;20914304;28;20052;-21
2021/06/05 15:33:46;;;;;;;13.88;9.82;;;23.00;73.80;;;;;;20923058;28;20155;-21
2021/06/05 15:43:47;;;;;;;24.08;17.40;;;23.00;74.20;;;;;;20925783;28;20028;-22
2021/06/05 15:53:49;;;;;;;29.70;27.13;;;23.20;75.10;;;;;;20915576;28;20017;-22
2021/06/05 16:03:51;;;;;;;30.08;27.00;;;22.90;74.10;;;;;;20875652;28;20033;-21
2021/06/05 16:13:53;;;;;;;25.27;22.67;;;22.90;74.90;;;;;;20886250;28;20577;-21
2021/06/05 16:23:55;;;;;;;25.13;22.55;;;22.80;73.90;;;;;;20899170;28;20072;-21
2021/06/05 16:33:55;;;;;;;23.52;21.42;;;22.80;73.90;;;;;;20907816;28;20021;-21
2021/06/05 16:43:56;;;;;;;22.65;20.02;;;22.70;73.80;;;;;;20906460;28;20032;-21
2021/06/05 16:53:57;;;;;;;21.90;19.27;;;22.70;73.80;;;;;;20902876;28;20036;-21
2021/06/05 17:03:58;;;;;;;19.93;18.23;;;22.70;73.80;;;;;;20898498;28;20824;-21
2021/06/05 17:13:58;;;;;;;19.65;17.65;;;22.70;73.80;;;;;;20896732;28;20533;-21
2021/06/05 17:23:59;;;;;;;20.50;18.50;;;22.70;73.80;;;;;;20887313;28;20026;-21
2021/06/05 17:34:00;;;;;;;17.98;16.48;;;22.60;73.60;;;;;;20900636;28;20017;-21
2021/06/05 17:44:01;;;;;;;16.52;15.02;;;22.70;73.40;;;;;;20902154;28;20017;-21
2021/06/05 17:54:13;;;;;;;16.17;14.77;;;22.60;73.30;;;;;;20885065;28;20450;-21
2021/06/05 18:04:18;;;;;;;15.63;14.13;;;22.60;73.20;;;;;;20895091;28;20108;-21
2021/06/05 18:14:25;;;;;;;13.10;12.00;;;22.60;73.10;;;;;;20891722;28;20067;-20
2021/06/05 18:24:30;;;;;;;15.05;13.68;;;22.60;73.50;;;;;;20880226;28;20105;-21
2021/06/05 18:34:30;;;;;;;13.60;12.32;;;22.50;72.70;;;;;;20896613;28;20029;-21
2021/06/05 18:44:31;;;;;;;14.50;13.25;;;22.60;72.90;;;;;;20897017;28;20033;-21
2021/06/05 18:54:32;;;;;;;14.57;11.55;;;22.50;72.80;;;;;;20880760;28;20119;-21
2021/06/05 19:04:33;;;;;;;12.27;11.18;;;22.50;72.90;;;;;;20890234;28;20025;-21
2021/06/05 19:14:34;;;;;;;11.48;10.38;;;22.50;72.70;;;;;;20887610;28;20606;-21
2021/06/05 19:24:34;;;;;;;12.02;10.93;;;22.50;72.30;;;;;;20886027;28;20067;-21
2021/06/05 19:34:36;;;;;;;13.93;9.35;;;22.50;72.00;;;;;;20888242;28;20542;-21
2021/06/05 19:44:40;;;;;;;16.80;9.95;;;22.50;72.30;;;;;;20880641;28;20126;-21
2021/06/05 19:54:40;;;;;;;22.88;11.70;;;22.50;74.30;;;;;;20891220;28;20041;-21
2021/06/05 20:04:41;;;;;;;23.13;10.60;;;22.50;74.00;;;;;;20890754;28;20531;-21
2021/06/05 20:14:42;;;;;;;22.10;11.40;;;22.50;73.60;;;;;;20893976;28;20104;-21
2021/06/05 20:24:44;;;;;;;28.77;11.60;;;22.50;74.70;;;;;;20891198;28;20025;-21
2021/06/05 20:34:44;;;;;;;16.50;9.75;;;22.50;75.30;;;;;;20890723;28;20037;-21
2021/06/05 20:44:45;;;;;;;16.88;10.50;;;22.60;74.80;;;;;;20888781;28;20042;-20
2021/06/05 20:54:45;;;;;;;15.80;9.48;;;22.60;74.50;;;;;;20886318;28;20018;-21
2021/06/05 21:04:48;;;;;;;12.55;8.75;;;22.60;74.50;;;;;;20895366;28;20021;-20
2021/06/05 21:14:48;;;;;;;15.88;9.23;;;22.60;74.30;;;;;;20903452;28;20409;-20
2021/06/05 21:24:49;;;;;;;11.02;9.10;;;22.60;74.30;;;;;;20897419;28;20033;-21
2021/06/05 21:34:49;;;;;;;15.27;9.18;;;22.60;74.10;;;;;;20901147;28;20065;-21
2021/06/05 21:44:50;;;;;;;10.35;7.75;;;22.60;74.10;;;;;;20904988;28;20112;-20
2021/06/05 21:54:50;;;;;;;15.45;8.95;;;22.60;73.60;;;;;;20908624;28;20098;-20
2021/06/05 22:04:51;;;;;;;13.55;8.95;;;22.70;72.70;;;;;;20899438;28;20108;-21
2021/06/05 22:14:52;;;;;;;11.30;8.10;;;22.50;72.60;;;;;;20903077;28;20035;-21
2021/06/05 22:24:56;;;;;;;11.82;8.95;;;22.50;72.50;;;;;;20900246;28;20389;-20
2021/06/05 22:34:56;;;;;;;10.25;8.77;;;22.50;72.50;;;;;;20896029;28;20032;-20
2021/06/05 22:44:57;;;;;;;15.75;8.98;;;22.50;72.20;;;;;;20897102;28;20120;-20
2021/06/05 22:55:12;;;;;;;13.55;10.02;;;22.50;72.00;;;;;;20880609;28;20073;-20
2021/06/05 23:05:14;;;;;;;11.90;9.13;;;22.50;72.60;;;;;;20885295;28;20032;-19
2021/06/05 23:15:15;;;;;;;10.65;9.52;;;22.50;72.10;;;;;;20886695;28;20033;-20
2021/06/05 23:25:19;;;;;;;11.60;9.95;;;22.40;71.90;;;;;;20890521;28;20070;-21
2021/06/05 23:35:33;;;;;;;11.38;10.25;;;22.40;71.90;;;;;;20891875;28;20025;-20
2021/06/05 23:45:35;;;;;;;11.65;10.02;;;22.40;72.00;;;;;;20894630;28;20048;-21
2021/06/05 23:55:42;;;;;;;11.35;10.23;;;22.40;72.40;;;;;;20899954;28;20053;-21
